Time;durP1;ratioP1;P1;durP2;ratioP2;P2;SDS_P1;SDS_P2;PMS_P1;PMS_P2;Temp;Humidity;BMP_temperature;BMP_pressure;BME280_temperature;BME280_humidity;BME280_pressure;Samples;Min_cycle;Max_cycle;Signal;HPM_P1;HPM_P2
2021/03/07 00:01:43;;;;;;;0.88;0.88;;;;;;;;;;5048779;28;20239;-75
2021/03/07 00:04:09;;;;;;;0.25;0.25;;;;;;;;;;5042645;28;20198;-74
2021/03/07 00:06:35;;;;;;;0.10;0.10;;;;;;;;;;5030019;28;20170;-74
2021/03/07 00:09:01;;;;;;;0.22;0.22;;;;;;;;;;5028644;28;20186;-74
2021/03/07 00:11:27;;;;;;;0.30;0.30;;;;;;;;;;5045888;28;20221;-74
2021/03/07 00:13:53;;;;;;;0.20;0.20;;;;;;;;;;5049242;28;20224;-74
2021/03/07 00:16:20;;;;;;;1.48;1.48;;;;;;;;;;5049415;28;20166;-74
2021/03/07 00:18:46;;;;;;;0.13;0.13;;;;;;;;;;5048121;28;20173;-74
2021/03/07 00:21:12;;;;;;;1.10;1.10;;;;;;;;;;5048148;28;20220;-74
2021/03/07 00:23:38;;;;;;;0.55;0.55;;;;;;;;;;5048131;28;20197;-74
2021/03/07 00:26:05;;;;;;;0.20;0.20;;;;;;;;;;5049476;28;20169;-74
2021/03/07 00:28:32;;;;;;;0.20;0.20;;;;;;;;;;5048180;28;20196;-74
2021/03/07 00:30:58;;;;;;;0.25;0.25;;;;;;;;;;5049377;28;20162;-74
2021/03/07 00:33:24;;;;;;;0.10;0.10;;;;;;;;;;5049257;28;20192;-74
2021/03/07 00:35:50;;;;;;;0.20;0.20;;;;;;;;;;5049348;28;20161;-74
2021/03/07 00:38:17;;;;;;;0.20;0.20;;;;;;;;;;5049325;28;20154;-74
2021/03/07 00:40:43;;;;;;;0.40;0.40;;;;;;;;;;5049231;28;20193;-74
2021/03/07 00:43:09;;;;;;;1.13;1.13;;;;;;;;;;5049243;28;20220;-74
2021/03/07 00:45:35;;;;;;;0.10;0.10;;;;;;;;;;5049179;28;20193;-74
2021/03/07 00:48:02;;;;;;;1.77;1.67;;;;;;;;;;5047748;28;20288;-74
2021/03/07 00:50:28;;;;;;;0.10;0.10;;;;;;;;;;5047851;28;20185;-74
2021/03/07 00:52:55;;;;;;;0.13;0.13;;;;;;;;;;5047907;28;20276;-74
2021/03/07 00:55:22;;;;;;;0.10;0.10;;;;;;;;;;5049021;28;20292;-74
2021/03/07 00:57:48;;;;;;;0.55;0.55;;;;;;;;;;5047671;28;20181;-74
2021/03/07 01:00:16;;;;;;;0.10;0.10;;;;;;;;;;5049025;28;20193;-74
2021/03/07 01:02:42;;;;;;;0.10;0.10;;;;;;;;;;5048973;28;20165;-74
2021/03/07 01:05:09;;;;;;;0.20;0.20;;;;;;;;;;5047174;28;20259;-74
2021/03/07 01:07:35;;;;;;;0.30;0.30;;;;;;;;;;5047723;28;20176;-75
2021/03/07 01:10:02;;;;;;;0.68;0.68;;;;;;;;;;5048851;28;20161;-74
2021/03/07 01:12:28;;;;;;;0.10;0.10;;;;;;;;;;5048884;28;20161;-75
2021/03/07 01:14:54;;;;;;;0.50;0.50;;;;;;;;;;5047411;28;20204;-75
2021/03/07 01:17:20;;;;;;;0.45;0.45;;;;;;;;;;5048877;28;20165;-75
2021/03/07 01:19:46;;;;;;;0.10;0.10;;;;;;;;;;5048800;28;20197;-74
2021/03/07 01:22:13;;;;;;;0.52;0.52;;;;;;;;;;5047422;28;20173;-75
2021/03/07 01:24:39;;;;;;;0.28;0.28;;;;;;;;;;5048741;28;20225;-74
2021/03/07 01:27:05;;;;;;;0.10;0.10;;;;;;;;;;5048728;28;20166;-75
2021/03/07 01:29:31;;;;;;;0.30;0.30;;;;;;;;;;5048717;28;20165;-74
2021/03/07 01:31:58;;;;;;;0.10;0.10;;;;;;;;;;5048840;28;20158;-74
2021/03/07 01:34:24;;;;;;;0.10;0.10;;;;;;;;;;5048703;28;20323;-74
2021/03/07 01:36:50;;;;;;;0.30;0.30;;;;;;;;;;5048614;28;20212;-74
2021/03/07 01:39:16;;;;;;;0.10;0.10;;;;;;;;;;5047399;28;20178;-74
2021/03/07 01:41:43;;;;;;;0.15;0.15;;;;;;;;;;5048778;28;20154;-74
2021/03/07 01:44:09;;;;;;;0.10;0.10;;;;;;;;;;5047805;28;20654;-74
2021/03/07 01:46:35;;;;;;;0.10;0.10;;;;;;;;;;5047375;28;20170;-74
2021/03/07 01:49:01;;;;;;;1.83;1.75;;;;;;;;;;5048390;28;20236;-74
2021/03/07 01:51:28;;;;;;;0.10;0.10;;;;;;;;;;5048348;28;20180;-74
2021/03/07 01:53:54;;;;;;;0.10;0.10;;;;;;;;;;5047338;28;20200;-74
2021/03/07 01:56:21;;;;;;;0.20;0.20;;;;;;;;;;5048617;28;20172;-74
2021/03/07 01:58:49;;;;;;;0.10;0.10;;;;;;;;;;5048606;28;20161;-74
2021/03/07 02:01:15;;;;;;;1.25;1.08;;;;;;;;;;5047276;28;20197;-75
2021/03/07 02:03:51;;;;;;;0.10;0.10;;;;;;;;;;5047311;28;20204;-74
2021/03/07 02:06:18;;;;;;;0.17;0.17;;;;;;;;;;5047348;28;20168;-74
2021/03/07 02:08:44;;;;;;;0.10;0.10;;;;;;;;;;5048556;28;20189;-75
2021/03/07 02:11:10;;;;;;;0.10;0.10;;;;;;;;;;5048475;28;20221;-74
2021/03/07 02:13:38;;;;;;;0.30;0.30;;;;;;;;;;5048325;28;20224;-74
2021/03/07 02:16:06;;;;;;;0.10;0.10;;;;;;;;;;5049671;28;20184;-74
2021/03/07 02:18:34;;;;;;;0.10;0.10;;;;;;;;;;5050812;28;20256;-74
2021/03/07 02:21:04;;;;;;;0.45;0.45;;;;;;;;;;5052019;28;20199;-74
2021/03/07 02:23:31;;;;;;;0.13;0.13;;;;;;;;;;5050594;28;20254;-74
2021/03/07 02:25:58;;;;;;;0.17;0.17;;;;;;;;;;5051880;28;20184;-74
2021/03/07 02:28:25;;;;;;;0.10;0.10;;;;;;;;;;5051913;28;20189;-74
2021/03/07 02:30:52;;;;;;;0.55;0.55;;;;;;;;;;5051748;28;20158;-75
2021/03/07 02:33:21;;;;;;;0.20;0.20;;;;;;;;;;5050216;28;20208;-74
2021/03/07 02:35:51;;;;;;;0.30;0.30;;;;;;;;;;5051661;28;20169;-74
2021/03/07 02:38:18;;;;;;;0.73;0.73;;;;;;;;;;5051565;28;20230;-74
2021/03/07 02:40:45;;;;;;;3.28;1.85;;;;;;;;;;5051399;28;20196;-74
2021/03/07 02:43:13;;;;;;;1.00;1.00;;;;;;;;;;5050108;28;20208;-75
2021/03/07 02:45:41;;;;;;;0.10;0.10;;;;;;;;;;5051540;28;20529;-74
2021/03/07 02:48:10;;;;;;;0.25;0.25;;;;;;;;;;5051191;28;20307;-74
2021/03/07 02:50:36;;;;;;;0.28;0.28;;;;;;;;;;5051273;28;20173;-74
2021/03/07 02:53:08;;;;;;;1.27;1.17;;;;;;;;;;5051191;28;20201;-74
2021/03/07 02:55:36;;;;;;;0.20;0.20;;;;;;;;;;5051303;28;20166;-74
2021/03/07 02:58:06;;;;;;;0.10;0.10;;;;;;;;;;5049869;28;20178;-74
2021/03/07 03:00:34;;;;;;;0.20;0.20;;;;;;;;;;5051075;28;20197;-74
2021/03/07 03:03:01;;;;;;;0.17;0.17;;;;;;;;;;5050990;28;20193;-75
2021/03/07 03:05:28;;;;;;;0.40;0.40;;;;;;;;;;5049805;28;20173;-74
2021/03/07 03:07:55;;;;;;;0.13;0.13;;;;;;;;;;5051007;28;20686;-74
2021/03/07 03:10:21;;;;;;;0.20;0.20;;;;;;;;;;5049599;28;20177;-74
2021/03/07 03:12:48;;;;;;;0.10;0.10;;;;;;;;;;5050908;28;20264;-75
2021/03/07 03:15:15;;;;;;;1.43;1.33;;;;;;;;;;5050903;28;20170;-74
2021/03/07 03:17:42;;;;;;;0.20;0.20;;;;;;;;;;5050778;28;20188;-74
2021/03/07 03:20:11;;;;;;;0.30;0.30;;;;;;;;;;5050669;28;20253;-74
2021/03/07 03:22:37;;;;;;;0.10;0.10;;;;;;;;;;5050627;28;20173;-74
2021/03/07 03:25:04;;;;;;;0.10;0.10;;;;;;;;;;5049489;28;20192;-74
2021/03/07 03:27:31;;;;;;;0.20;0.20;;;;;;;;;;5050149;28;20161;-74
2021/03/07 03:29:59;;;;;;;0.10;0.10;;;;;;;;;;5049302;28;20173;-74
2021/03/07 03:32:27;;;;;;;0.15;0.15;;;;;;;;;;5049396;28;20177;-74
2021/03/07 03:34:54;;;;;;;0.85;0.85;;;;;;;;;;5050873;28;20162;-74
2021/03/07 03:37:20;;;;;;;0.85;0.85;;;;;;;;;;5050873;28;20603;-74
2021/03/07 03:39:47;;;;;;;0.28;0.28;;;;;;;;;;5050634;28;20204;-74
2021/03/07 03:42:14;;;;;;;0.20;0.20;;;;;;;;;;5050726;28;20161;-74
2021/03/07 03:44:40;;;;;;;0.15;0.15;;;;;;;;;;5050653;28;20734;-74
2021/03/07 03:47:10;;;;;;;0.63;0.63;;;;;;;;;;5050665;28;20172;-74
2021/03/07 03:49:44;;;;;;;0.20;0.20;;;;;;;;;;5050292;28;20233;-74
2021/03/07 03:52:11;;;;;;;0.20;0.20;;;;;;;;;;5050259;28;20229;-75
2021/03/07 03:54:44;;;;;;;0.20;0.20;;;;;;;;;;5049063;28;20208;-74
2021/03/07 03:57:11;;;;;;;6.33;1.47;;;;;;;;;;5049340;28;20165;-74
2021/03/07 03:59:39;;;;;;;0.10;0.10;;;;;;;;;;5050178;28;20292;-74
2021/03/07 04:02:06;;;;;;;0.25;0.25;;;;;;;;;;5048925;28;20177;-74
2021/03/07 04:04:33;;;;;;;1.07;1.07;;;;;;;;;;5050101;28;20193;-74
2021/03/07 04:07:00;;;;;;;0.15;0.15;;;;;;;;;;5050213;28;20162;-74
2021/03/07 04:09:26;;;;;;;0.20;0.20;;;;;;;;;;5050247;28;20176;-74
2021/03/07 04:11:53;;;;;;;0.35;0.35;;;;;;;;;;5050103;28;20172;-74
2021/03/07 04:14:19;;;;;;;0.20;0.20;;;;;;;;;;5049831;28;20617;-74
2021/03/07 04:16:49;;;;;;;0.52;0.52;;;;;;;;;;5049837;28;20162;-74
2021/03/07 04:19:19;;;;;;;0.10;0.10;;;;;;;;;;5049740;28;20186;-74
2021/03/07 04:21:47;;;;;;;0.20;0.20;;;;;;;;;;5048726;28;20185;-74
2021/03/07 04:24:13;;;;;;;0.80;0.80;;;;;;;;;;5049756;28;20211;-74
2021/03/07 04:26:39;;;;;;;1.17;1.17;;;;;;;;;;5049690;28;20169;-73
2021/03/07 04:29:06;;;;;;;0.33;0.33;;;;;;;;;;5049832;28;20164;-74
2021/03/07 04:31:33;;;;;;;0.10;0.10;;;;;;;;;;5049617;28;20173;-74
2021/03/07 04:34:01;;;;;;;0.80;0.80;;;;;;;;;;5049630;28;20276;-74
2021/03/07 04:36:28;;;;;;;0.20;0.20;;;;;;;;;;5049711;28;20172;-74
2021/03/07 04:38:54;;;;;;;0.43;0.43;;;;;;;;;;5049620;28;20188;-73
2021/03/07 04:41:20;;;;;;;0.20;0.20;;;;;;;;;;5047961;28;20220;-74
2021/03/07 04:43:48;;;;;;;0.30;0.30;;;;;;;;;;5049508;28;20197;-74
2021/03/07 04:46:15;;;;;;;0.97;0.97;;;;;;;;;;5049482;28;20165;-74
2021/03/07 04:48:41;;;;;;;0.20;0.20;;;;;;;;;;5047883;28;20233;-74
2021/03/07 04:51:07;;;;;;;1.20;1.00;;;;;;;;;;5049537;28;20169;-73
2021/03/07 04:53:33;;;;;;;0.20;0.20;;;;;;;;;;5049381;28;20224;-74
2021/03/07 04:56:00;;;;;;;3.00;2.53;;;;;;;;;;5049261;28;20176;-73
2021/03/07 04:58:26;;;;;;;0.20;0.20;;;;;;;;;;5048087;28;20173;-73
2021/03/07 05:00:52;;;;;;;0.10;0.10;;;;;;;;;;5049275;28;20185;-74
2021/03/07 05:03:18;;;;;;;0.20;0.20;;;;;;;;;;5049378;28;20228;-74
2021/03/07 05:05:45;;;;;;;0.10;0.10;;;;;;;;;;5049262;28;20271;-74
2021/03/07 05:08:12;;;;;;;0.73;0.73;;;;;;;;;;5049185;28;20225;-74
2021/03/07 05:10:38;;;;;;;0.20;0.20;;;;;;;;;;5047920;28;20173;-74
2021/03/07 05:13:04;;;;;;;0.10;0.10;;;;;;;;;;5049118;28;20193;-73
2021/03/07 05:15:30;;;;;;;0.10;0.10;;;;;;;;;;5049080;28;20169;-73
2021/03/07 05:17:56;;;;;;;0.10;0.10;;;;;;;;;;5048995;28;20166;-74
2021/03/07 05:20:23;;;;;;;0.30;0.30;;;;;;;;;;5048989;28;20200;-73
2021/03/07 05:22:49;;;;;;;0.20;0.20;;;;;;;;;;5049049;28;20204;-74
2021/03/07 05:25:15;;;;;;;0.10;0.10;;;;;;;;;;5049187;28;20296;-74
2021/03/07 05:27:41;;;;;;;0.10;0.10;;;;;;;;;;5047663;28;20170;-73
2021/03/07 05:30:08;;;;;;;1.80;1.70;;;;;;;;;;5047641;28;20188;-73
2021/03/07 05:32:34;;;;;;;0.30;0.30;;;;;;;;;;5048908;28;20169;-73
2021/03/07 05:35:00;;;;;;;0.13;0.13;;;;;;;;;;5048837;28;20169;-73
2021/03/07 05:37:26;;;;;;;0.20;0.20;;;;;;;;;;5048960;28;20237;-75
2021/03/07 05:39:53;;;;;;;0.10;0.10;;;;;;;;;;5048790;28;20641;-73
2021/03/07 05:42:19;;;;;;;0.13;0.13;;;;;;;;;;5047695;28;20173;-74
2021/03/07 05:44:45;;;;;;;0.30;0.30;;;;;;;;;;5047621;28;20264;-75
2021/03/07 05:47:11;;;;;;;0.30;0.30;;;;;;;;;;5048844;28;20193;-75
2021/03/07 05:49:40;;;;;;;0.20;0.20;;;;;;;;;;5047477;28;20240;-75
2021/03/07 05:52:07;;;;;;;0.10;0.10;;;;;;;;;;5052025;28;20160;-75
2021/03/07 05:54:34;;;;;;;0.10;0.10;;;;;;;;;;5052607;28;20217;-75
2021/03/07 05:57:00;;;;;;;0.10;0.10;;;;;;;;;;5052642;28;20173;-75
2021/03/07 05:59:27;;;;;;;0.20;0.20;;;;;;;;;;5052487;28;20189;-75
2021/03/07 06:01:53;;;;;;;0.30;0.30;;;;;;;;;;5052551;28;20166;-73
2021/03/07 06:04:19;;;;;;;0.13;0.13;;;;;;;;;;5052444;28;20203;-73
2021/03/07 06:06:46;;;;;;;0.20;0.20;;;;;;;;;;5052505;28;20211;-74
2021/03/07 06:09:20;;;;;;;0.20;0.20;;;;;;;;;;5052507;28;20166;-73
2021/03/07 06:11:47;;;;;;;2.33;1.95;;;;;;;;;;5052427;28;20150;-73
2021/03/07 06:14:30;;;;;;;0.20;0.20;;;;;;;;;;5052120;28;20208;-74
2021/03/07 06:17:00;;;;;;;0.20;0.20;;;;;;;;;;5052193;28;20613;-73
2021/03/07 06:19:27;;;;;;;0.10;0.10;;;;;;;;;;5050768;28;20209;-74
2021/03/07 06:21:53;;;;;;;0.22;0.22;;;;;;;;;;5052081;28;20176;-73
2021/03/07 06:24:36;;;;;;;0.30;0.30;;;;;;;;;;5050892;28;20204;-73
2021/03/07 06:27:03;;;;;;;0.40;0.40;;;;;;;;;;5052067;28;20215;-73
2021/03/07 06:29:30;;;;;;;0.20;0.20;;;;;;;;;;5050698;28;20174;-74
2021/03/07 06:31:56;;;;;;;0.57;0.57;;;;;;;;;;5052022;28;20169;-74
2021/03/07 06:34:22;;;;;;;1.40;1.30;;;;;;;;;;5051917;28;20203;-74
2021/03/07 06:36:48;;;;;;;0.20;0.20;;;;;;;;;;5050613;28;20178;-74
2021/03/07 06:39:15;;;;;;;0.20;0.20;;;;;;;;;;5050345;28;20169;-74
2021/03/07 06:41:41;;;;;;;0.32;0.32;;;;;;;;;;5050448;28;20173;-73
2021/03/07 06:44:14;;;;;;;0.10;0.10;;;;;;;;;;5050537;28;20607;-73
2021/03/07 06:46:41;;;;;;;0.65;0.65;;;;;;;;;;5051951;28;20158;-74
2021/03/07 06:49:08;;;;;;;0.10;0.10;;;;;;;;;;5050524;28;20672;-74
2021/03/07 06:51:35;;;;;;;0.10;0.10;;;;;;;;;;5051901;28;20162;-73
2021/03/07 06:54:21;;;;;;;0.10;0.10;;;;;;;;;;5051680;28;20193;-73
2021/03/07 06:56:48;;;;;;;0.20;0.20;;;;;;;;;;5051562;28;20161;-74
2021/03/07 06:59:16;;;;;;;0.10;0.10;;;;;;;;;;5051522;28;20243;-73
2021/03/07 07:01:46;;;;;;;0.20;0.20;;;;;;;;;;5051655;28;20192;-73
2021/03/07 07:04:13;;;;;;;1.40;1.30;;;;;;;;;;5049836;28;20197;-74
2021/03/07 07:06:40;;;;;;;0.20;0.20;;;;;;;;;;5051360;28;20169;-73
2021/03/07 07:09:07;;;;;;;0.20;0.20;;;;;;;;;;5051506;28;20220;-73
2021/03/07 07:11:44;;;;;;;0.10;0.10;;;;;;;;;;5051520;28;20177;-74
2021/03/07 07:14:11;;;;;;;0.15;0.15;;;;;;;;;;5050990;28;20208;-75
2021/03/07 07:16:37;;;;;;;0.10;0.10;;;;;;;;;;5051592;28;20162;-73
2021/03/07 07:19:04;;;;;;;0.13;0.13;;;;;;;;;;5050984;28;20622;-75
2021/03/07 07:21:31;;;;;;;0.20;0.20;;;;;;;;;;5049859;28;20197;-73
2021/03/07 07:23:57;;;;;;;0.13;0.13;;;;;;;;;;5051625;28;20200;-76
2021/03/07 07:26:24;;;;;;;0.10;0.10;;;;;;;;;;5051113;28;20195;-75
2021/03/07 07:28:50;;;;;;;0.10;0.10;;;;;;;;;;5051178;28;20181;-75
2021/03/07 07:31:22;;;;;;;0.10;0.10;;;;;;;;;;5051013;28;20183;-75
2021/03/07 07:33:56;;;;;;;0.13;0.13;;;;;;;;;;5050898;28;20621;-75
2021/03/07 07:36:29;;;;;;;0.10;0.10;;;;;;;;;;5042673;28;20172;-75
2021/03/07 07:38:57;;;;;;;0.90;0.90;;;;;;;;;;5045502;28;20220;-75
2021/03/07 07:41:30;;;;;;;0.10;0.10;;;;;;;;;;5050696;28;20185;-75
2021/03/07 07:43:57;;;;;;;0.10;0.10;;;;;;;;;;5049483;28;20235;-75
2021/03/07 07:46:23;;;;;;;0.28;0.28;;;;;;;;;;5049494;28;20165;-75
2021/03/07 07:48:49;;;;;;;0.80;0.80;;;;;;;;;;5049185;28;20658;-75
2021/03/07 07:51:35;;;;;;;0.10;0.10;;;;;;;;;;5049201;28;20172;-75
2021/03/07 07:54:03;;;;;;;1.40;1.30;;;;;;;;;;5050445;28;20195;-75
2021/03/07 07:56:38;;;;;;;0.10;0.10;;;;;;;;;;5050381;28;20169;-75
2021/03/07 07:59:04;;;;;;;0.08;0.08;;;;;;;;;;5049606;28;20172;-74
2021/03/07 08:01:49;;;;;;;0.20;0.20;;;;;;;;;;5049036;28;20260;-75
2021/03/07 08:04:27;;;;;;;0.03;0.03;;;;;;;;;;5050316;28;20204;-74
2021/03/07 08:06:54;;;;;;;0.00;0.00;;;;;;;;;;5048874;28;20240;-73
2021/03/07 08:09:35;;;;;;;0.00;0.00;;;;;;;;;;5050204;28;20158;-74
2021/03/07 08:12:21;;;;;;;0.08;0.08;;;;;;;;;;5048915;28;20167;-74
2021/03/07 08:14:47;;;;;;;0.22;0.22;;;;;;;;;;5048261;28;20220;-75
2021/03/07 08:17:32;;;;;;;0.93;0.90;;;;;;;;;;5050074;28;20158;-74
2021/03/07 08:19:59;;;;;;;0.30;0.15;;;;;;;;;;5049758;28;20200;-75
2021/03/07 08:22:25;;;;;;;0.30;0.30;;;;;;;;;;5049830;28;20162;-75
2021/03/07 08:24:58;;;;;;;1.05;0.68;;;;;;;;;;5048600;28;20169;-74
2021/03/07 08:27:50;;;;;;;0.15;0.15;;;;;;;;;;5049561;28;20219;-74
2021/03/07 08:30:17;;;;;;;0.60;0.60;;;;;;;;;;5047845;28;20193;-75
2021/03/07 08:32:44;;;;;;;1.17;0.57;;;;;;;;;;5048271;28;20256;-74
2021/03/07 08:35:10;;;;;;;7.80;0.52;;;;;;;;;;5049718;28;20166;-75
2021/03/07 08:37:37;;;;;;;0.60;0.60;;;;;;;;;;5049491;28;20224;-75
2021/03/07 08:40:22;;;;;;;0.10;0.10;;;;;;;;;;5048559;28;20724;-75
2021/03/07 08:42:48;;;;;;;0.98;0.88;;;;;;;;;;5049460;28;20197;-75
2021/03/07 08:45:17;;;;;;;0.00;0.00;;;;;;;;;;5049443;28;20154;-75
2021/03/07 08:47:53;;;;;;;0.10;0.10;;;;;;;;;;5049145;28;20217;-75
2021/03/07 08:50:20;;;;;;;1.23;0.43;;;;;;;;;;5049349;28;20184;-75
2021/03/07 08:52:46;;;;;;;1.23;1.05;;;;;;;;;;5048067;28;20238;-75
2021/03/07 08:55:13;;;;;;;0.40;0.40;;;;;;;;;;5046406;28;20241;-75
2021/03/07 08:57:44;;;;;;;0.25;0.25;;;;;;;;;;5046263;28;20260;-74
2021/03/07 09:00:11;;;;;;;0.90;0.90;;;;;;;;;;5046480;28;20200;-75
2021/03/07 09:02:38;;;;;;;0.60;0.55;;;;;;;;;;5047646;28;20217;-75
2021/03/07 09:05:07;;;;;;;0.55;0.55;;;;;;;;;;5047912;28;20175;-75
2021/03/07 09:07:33;;;;;;;1.13;0.70;;;;;;;;;;5048309;28;20180;-75
2021/03/07 09:10:00;;;;;;;1.10;0.80;;;;;;;;;;5048880;28;20173;-74
2021/03/07 09:12:27;;;;;;;0.75;0.57;;;;;;;;;;5049186;28;20248;-73
2021/03/07 09:14:53;;;;;;;0.10;0.10;;;;;;;;;;5047785;28;20636;-75
2021/03/07 09:17:20;;;;;;;4.47;1.77;;;;;;;;;;5049098;28;20173;-74
2021/03/07 09:19:47;;;;;;;0.52;0.52;;;;;;;;;;5048967;28;20665;-74
2021/03/07 09:22:15;;;;;;;0.52;0.52;;;;;;;;;;5049060;28;20158;-74
2021/03/07 09:24:52;;;;;;;0.90;0.90;;;;;;;;;;5048759;28;20215;-75
2021/03/07 09:27:19;;;;;;;0.40;0.40;;;;;;;;;;5052245;28;20157;-75
2021/03/07 09:29:52;;;;;;;0.20;0.20;;;;;;;;;;5051797;28;20191;-75
2021/03/07 09:32:44;;;;;;;2.75;0.90;;;;;;;;;;5052839;28;20165;-76
2021/03/07 09:35:17;;;;;;;0.10;0.10;;;;;;;;;;5050768;28;20574;-75
2021/03/07 09:37:43;;;;;;;1.15;1.10;;;;;;;;;;5052887;28;20165;-76
2021/03/07 09:40:11;;;;;;;0.47;0.47;;;;;;;;;;5052896;28;20197;-75
2021/03/07 09:42:37;;;;;;;0.90;0.82;;;;;;;;;;5052687;28;20166;-74
2021/03/07 09:45:05;;;;;;;0.77;0.77;;;;;;;;;;5052890;28;20161;-74
2021/03/07 09:47:31;;;;;;;0.10;0.10;;;;;;;;;;5052592;28;20162;-76
2021/03/07 09:49:58;;;;;;;0.08;0.08;;;;;;;;;;5051178;28;20212;-76
2021/03/07 09:52:24;;;;;;;7.43;0.85;;;;;;;;;;5052569;28;20172;-74
2021/03/07 09:54:55;;;;;;;0.20;0.20;;;;;;;;;;5051269;28;20236;-74
2021/03/07 09:57:22;;;;;;;0.13;0.13;;;;;;;;;;5052421;28;20174;-76
2021/03/07 09:59:49;;;;;;;0.35;0.35;;;;;;;;;;5052415;28;20193;-75
2021/03/07 10:02:15;;;;;;;0.93;0.73;;;;;;;;;;5052563;28;20145;-77
2021/03/07 10:04:50;;;;;;;1.90;0.40;;;;;;;;;;5052223;28;20190;-76
2021/03/07 10:07:22;;;;;;;1.60;0.70;;;;;;;;;;5052020;28;20257;-76
2021/03/07 10:09:56;;;;;;;0.82;0.82;;;;;;;;;;5051001;28;20165;-76
2021/03/07 10:12:22;;;;;;;3.92;1.88;;;;;;;;;;5052239;28;20225;-76
2021/03/07 10:14:57;;;;;;;0.77;0.40;;;;;;;;;;5052177;28;20216;-76
2021/03/07 10:17:23;;;;;;;0.17;0.17;;;;;;;;;;5052198;28;20181;-76
2021/03/07 10:19:50;;;;;;;1.88;1.40;;;;;;;;;;5050784;28;20227;-76
2021/03/07 10:22:16;;;;;;;0.85;0.85;;;;;;;;;;5051967;28;20165;-75
2021/03/07 10:24:42;;;;;;;0.40;0.40;;;;;;;;;;5051883;28;20772;-76
2021/03/07 10:27:09;;;;;;;0.70;0.70;;;;;;;;;;5052108;28;20342;-76
2021/03/07 10:29:37;;;;;;;0.55;0.55;;;;;;;;;;5051897;28;20154;-76
2021/03/07 10:32:18;;;;;;;0.10;0.10;;;;;;;;;;5051599;28;20530;-76
2021/03/07 10:34:46;;;;;;;0.20;0.20;;;;;;;;;;5051626;28;20197;-76
2021/03/07 10:37:31;;;;;;;0.57;0.57;;;;;;;;;;5049300;28;20166;-76
2021/03/07 10:39:57;;;;;;;0.52;0.50;;;;;;;;;;5050269;28;20204;-76
2021/03/07 10:42:31;;;;;;;0.60;0.60;;;;;;;;;;5051592;28;20154;-76
2021/03/07 10:45:11;;;;;;;0.13;0.13;;;;;;;;;;5051766;28;20197;-76
2021/03/07 10:47:37;;;;;;;9.48;0.82;;;;;;;;;;5051468;28;20236;-76
2021/03/07 10:50:04;;;;;;;1.75;1.23;;;;;;;;;;5050103;28;20598;-77
2021/03/07 10:52:31;;;;;;;3.20;0.98;;;;;;;;;;5051631;28;20192;-76
2021/03/07 10:54:57;;;;;;;2.63;0.80;;;;;;;;;;5051523;28;20197;-74
2021/03/07 10:57:23;;;;;;;0.45;0.45;;;;;;;;;;5051557;28;20226;-74
2021/03/07 10:59:52;;;;;;;0.63;0.55;;;;;;;;;;5051237;28;20256;-75
2021/03/07 11:02:19;;;;;;;1.25;1.15;;;;;;;;;;5050185;28;20161;-74
2021/03/07 11:04:48;;;;;;;0.40;0.30;;;;;;;;;;5051193;28;20254;-76
2021/03/07 11:07:14;;;;;;;0.40;0.40;;;;;;;;;;5051148;28;20158;-75
2021/03/07 11:09:41;;;;;;;0.10;0.10;;;;;;;;;;5049214;28;20208;-74
2021/03/07 11:12:08;;;;;;;0.45;0.35;;;;;;;;;;5049340;28;20200;-75
2021/03/07 11:14:34;;;;;;;0.65;0.65;;;;;;;;;;5049826;28;20165;-75
2021/03/07 11:17:00;;;;;;;1.10;1.05;;;;;;;;;;5051204;28;20170;-76
2021/03/07 11:19:26;;;;;;;0.52;0.40;;;;;;;;;;5050831;28;20166;-76
2021/03/07 11:21:53;;;;;;;0.85;0.47;;;;;;;;;;5050523;28;20197;-74
2021/03/07 11:24:19;;;;;;;0.35;0.35;;;;;;;;;;5050997;28;20165;-74
2021/03/07 11:26:45;;;;;;;0.17;0.17;;;;;;;;;;5049650;28;20157;-75
2021/03/07 11:29:11;;;;;;;0.82;0.57;;;;;;;;;;5050177;28;20325;-75
2021/03/07 11:31:38;;;;;;;0.30;0.30;;;;;;;;;;5050657;28;20286;-75
2021/03/07 11:34:04;;;;;;;3.83;1.75;;;;;;;;;;5050649;28;20161;-75
2021/03/07 11:36:31;;;;;;;0.90;0.90;;;;;;;;;;5050652;28;20229;-75
2021/03/07 11:38:57;;;;;;;1.10;0.68;;;;;;;;;;5049414;28;20185;-75
2021/03/07 11:41:23;;;;;;;1.52;1.17;;;;;;;;;;5048549;28;20197;-75
2021/03/07 11:43:49;;;;;;;0.47;0.28;;;;;;;;;;5050224;28;20177;-75
2021/03/07 11:46:15;;;;;;;0.60;0.47;;;;;;;;;;5050203;28;20589;-75
2021/03/07 11:48:42;;;;;;;0.75;0.75;;;;;;;;;;5048690;28;20292;-75
2021/03/07 11:51:08;;;;;;;1.25;0.70;;;;;;;;;;5049022;28;20199;-75
2021/03/07 11:53:34;;;;;;;0.25;0.25;;;;;;;;;;5050238;28;20197;-75
2021/03/07 11:56:00;;;;;;;0.57;0.57;;;;;;;;;;5049148;28;20170;-75
2021/03/07 11:58:26;;;;;;;0.95;0.95;;;;;;;;;;5048979;28;20204;-75
2021/03/07 12:00:52;;;;;;;0.28;0.28;;;;;;;;;;5050099;28;20264;-76
2021/03/07 12:03:19;;;;;;;0.20;0.20;;;;;;;;;;5049931;28;20666;-76
2021/03/07 12:05:45;;;;;;;0.63;0.63;;;;;;;;;;5048951;28;20165;-76
2021/03/07 12:08:11;;;;;;;1.30;1.20;;;;;;;;;;5049994;28;20225;-75
2021/03/07 12:10:37;;;;;;;0.10;0.10;;;;;;;;;;5050188;28;20211;-76
2021/03/07 12:13:03;;;;;;;2.53;0.90;;;;;;;;;;5049927;28;20193;-75
2021/03/07 12:15:29;;;;;;;1.67;0.75;;;;;;;;;;5049853;28;20188;-75
2021/03/07 12:17:55;;;;;;;0.50;0.50;;;;;;;;;;5049989;28;20265;-75
2021/03/07 12:20:22;;;;;;;0.10;0.10;;;;;;;;;;5048423;28;20201;-75
2021/03/07 12:22:48;;;;;;;0.57;0.55;;;;;;;;;;5049803;28;20227;-76
2021/03/07 12:25:15;;;;;;;0.35;0.35;;;;;;;;;;5048538;28;20189;-75
2021/03/07 12:27:41;;;;;;;0.10;0.10;;;;;;;;;;5049835;28;20150;-75
2021/03/07 12:30:08;;;;;;;0.15;0.15;;;;;;;;;;5048581;28;20169;-76
2021/03/07 12:32:34;;;;;;;0.65;0.65;;;;;;;;;;5048469;28;20197;-76
2021/03/07 12:35:01;;;;;;;0.10;0.10;;;;;;;;;;5049379;28;20168;-75
2021/03/07 12:37:27;;;;;;;0.77;0.70;;;;;;;;;;5049630;28;20162;-75
2021/03/07 12:39:53;;;;;;;1.88;1.10;;;;;;;;;;5048119;28;20197;-75
2021/03/07 12:42:19;;;;;;;0.10;0.10;;;;;;;;;;5049463;28;20197;-76
2021/03/07 12:44:45;;;;;;;0.10;0.10;;;;;;;;;;5048172;28;20166;-75
2021/03/07 12:47:12;;;;;;;1.10;1.00;;;;;;;;;;5049426;28;20172;-73
2021/03/07 12:49:38;;;;;;;0.77;0.77;;;;;;;;;;5048000;28;20224;-76
2021/03/07 12:52:04;;;;;;;0.47;0.47;;;;;;;;;;5047918;28;20637;-75
2021/03/07 12:54:30;;;;;;;4.53;1.17;;;;;;;;;;5048125;28;20173;-77
2021/03/07 12:56:56;;;;;;;0.10;0.10;;;;;;;;;;5049031;28;20173;-76
2021/03/07 12:59:23;;;;;;;0.38;0.38;;;;;;;;;;5047633;28;20176;-74
2021/03/07 13:01:49;;;;;;;0.00;0.00;;;;;;;;;;5047286;28;20667;-75
2021/03/07 13:04:15;;;;;;;0.20;0.20;;;;;;;;;;5049205;28;20165;-75
2021/03/07 13:06:41;;;;;;;0.20;0.20;;;;;;;;;;5049215;28;20191;-76
2021/03/07 13:09:07;;;;;;;0.30;0.30;;;;;;;;;;5047817;28;20174;-75
2021/03/07 13:11:34;;;;;;;0.65;0.65;;;;;;;;;;5049170;28;20158;-74
2021/03/07 13:14:00;;;;;;;0.75;0.50;;;;;;;;;;5048966;28;20225;-74
2021/03/07 13:16:27;;;;;;;0.10;0.10;;;;;;;;;;5049055;28;20290;-76
2021/03/07 13:18:53;;;;;;;0.10;0.10;;;;;;;;;;5048999;28;20173;-76
2021/03/07 13:21:22;;;;;;;0.00;0.00;;;;;;;;;;5048944;28;20243;-76
2021/03/07 13:23:48;;;;;;;0.10;0.10;;;;;;;;;;5049217;28;20520;-74
2021/03/07 13:26:15;;;;;;;1.17;1.00;;;;;;;;;;5049169;28;20165;-75
2021/03/07 13:28:42;;;;;;;0.40;0.40;;;;;;;;;;5049132;28;20501;-76
2021/03/07 13:31:08;;;;;;;0.90;0.90;;;;;;;;;;5048888;28;20166;-76
2021/03/07 13:33:34;;;;;;;0.68;0.68;;;;;;;;;;5047503;28;20207;-76
2021/03/07 13:36:00;;;;;;;0.35;0.35;;;;;;;;;;5048487;28;20229;-76
2021/03/07 13:38:26;;;;;;;0.25;0.25;;;;;;;;;;5049033;28;20170;-75
2021/03/07 13:40:53;;;;;;;0.55;0.55;;;;;;;;;;5048881;28;20196;-76
2021/03/07 13:43:19;;;;;;;0.28;0.22;;;;;;;;;;5048495;28;20192;-76
2021/03/07 13:45:46;;;;;;;0.15;0.15;;;;;;;;;;5048735;28;20169;-75
2021/03/07 13:48:12;;;;;;;0.13;0.13;;;;;;;;;;5047179;28;20217;-75
2021/03/07 13:50:38;;;;;;;0.10;0.10;;;;;;;;;;5048585;28;20235;-76
2021/03/07 13:53:04;;;;;;;0.20;0.20;;;;;;;;;;5048678;28;20192;-75
2021/03/07 13:55:31;;;;;;;0.10;0.10;;;;;;;;;;5048896;28;20162;-76
2021/03/07 13:57:59;;;;;;;0.45;0.45;;;;;;;;;;5048686;28;20194;-75
2021/03/07 14:00:25;;;;;;;0.20;0.20;;;;;;;;;;5048473;28;20247;-76
2021/03/07 14:02:52;;;;;;;0.10;0.10;;;;;;;;;;5047372;28;20205;-76
2021/03/07 14:05:19;;;;;;;0.73;0.73;;;;;;;;;;5048622;28;20158;-75
2021/03/07 14:07:46;;;;;;;0.43;0.43;;;;;;;;;;5047273;28;20189;-76
2021/03/07 14:10:14;;;;;;;0.15;0.15;;;;;;;;;;5048555;28;20168;-76
2021/03/07 14:12:41;;;;;;;0.25;0.25;;;;;;;;;;5050595;28;20292;-76
2021/03/07 14:15:10;;;;;;;0.73;0.73;;;;;;;;;;5052271;28;20170;-75
2021/03/07 14:17:36;;;;;;;0.73;0.25;;;;;;;;;;5052076;28;20154;-76
2021/03/07 14:20:03;;;;;;;1.45;1.35;;;;;;;;;;5051988;28;20291;-76
2021/03/07 14:22:30;;;;;;;0.43;0.43;;;;;;;;;;5051938;28;20207;-76
2021/03/07 14:24:56;;;;;;;1.05;0.75;;;;;;;;;;5052087;28;20153;-76
2021/03/07 14:27:23;;;;;;;0.70;0.70;;;;;;;;;;5052049;28;20220;-76
2021/03/07 14:29:49;;;;;;;0.20;0.20;;;;;;;;;;5051808;28;20169;-76
2021/03/07 14:32:15;;;;;;;1.88;1.20;;;;;;;;;;5051810;28;20197;-76
2021/03/07 14:34:42;;;;;;;0.47;0.47;;;;;;;;;;5051949;28;20154;-75
2021/03/07 14:37:08;;;;;;;0.10;0.10;;;;;;;;;;5051761;28;20161;-76
2021/03/07 14:39:34;;;;;;;1.48;0.73;;;;;;;;;;5051851;28;20192;-75
2021/03/07 14:42:01;;;;;;;0.57;0.50;;;;;;;;;;5050525;28;20580;-76
2021/03/07 14:44:27;;;;;;;0.10;0.10;;;;;;;;;;5050527;28;20608;-76
2021/03/07 14:46:55;;;;;;;2.13;1.80;;;;;;;;;;5051668;28;20622;-76